createdAt,value
2023-05-15T00:00:46.503Z,74.74
2023-05-15T00:01:46.516Z,75.05
2023-05-15T00:02:46.496Z,75.15
2023-05-15T00:03:46.559Z,75.25
2023-05-15T00:04:46.468Z,75.46
2023-05-15T00:05:46.450Z,75.76
2023-05-15T00:06:46.470Z,75.76
2023-05-15T00:07:46.390Z,75.76
2023-05-15T00:08:46.386Z,75.90
2023-05-15T00:09:46.400Z,75.90
2023-05-15T00:10:57.501Z,76.10
2023-05-15T00:11:46.353Z,76.40
2023-05-15T00:12:46.400Z,76.40
2023-05-15T00:13:46.339Z,76.40
2023-05-15T00:14:46.398Z,76.40
2023-05-15T00:15:46.354Z,76.40
2023-05-15T00:16:46.343Z,76.31
2023-05-15T00:17:46.489Z,76.40
2023-05-15T00:18:46.302Z,76.40
2023-05-15T00:19:46.304Z,76.40
2023-05-15T00:20:46.297Z,76.40
2023-05-15T00:21:46.275Z,76.71
2023-05-15T00:22:46.249Z,76.91
2023-05-15T00:23:46.284Z,76.91
2023-05-15T00:24:46.233Z,76.91
2023-05-15T00:25:46.232Z,76.91
2023-05-15T00:26:46.282Z,77.01
2023-05-15T00:27:46.218Z,77.01
2023-05-15T00:28:46.204Z,76.91
2023-05-15T00:29:46.272Z,76.91
2023-05-15T00:30:46.205Z,77.22
2023-05-15T00:31:46.178Z,77.36
2023-05-15T00:32:46.202Z,77.25
2023-05-15T00:33:46.184Z,77.05
2023-05-15T00:34:46.175Z,76.75
2023-05-15T00:35:46.144Z,77.05
2023-05-15T00:36:46.161Z,77.36
2023-05-15T00:37:46.113Z,77.45
2023-05-15T00:38:46.129Z,76.75
2023-05-15T00:39:46.108Z,76.71
2023-05-15T00:40:46.083Z,77.15
2023-05-15T00:41:46.090Z,75.83
2023-05-15T00:42:46.042Z,75.93
2023-05-15T00:43:46.154Z,75.73
2023-05-15T00:44:46.042Z,76.34
2023-05-15T00:45:46.043Z,76.03
2023-05-15T00:46:46.058Z,76.95
2023-05-15T00:47:46.058Z,76.75
2023-05-15T00:48:45.985Z,77.15
2023-05-15T00:49:45.970Z,76.85
2023-05-15T00:50:46.127Z,77.05
2023-05-15T00:51:45.951Z,77.45
2023-05-15T00:52:46.042Z,76.85
2023-05-15T00:53:46.022Z,76.64
2023-05-15T00:54:45.958Z,76.95
2023-05-15T00:55:45.953Z,76.03
2023-05-15T00:56:45.914Z,76.64
2023-05-15T00:57:45.914Z,76.54
2023-05-15T00:58:45.934Z,77.45
2023-05-15T00:59:45.905Z,77.15
2023-05-15T01:00:45.892Z,77.25
2023-05-15T01:01:45.870Z,76.95
2023-05-15T01:02:45.946Z,76.85
2023-05-15T01:03:45.870Z,76.64
2023-05-15T01:04:45.839Z,76.95
2023-05-15T01:05:45.822Z,77.76
2023-05-15T01:06:45.807Z,77.05
2023-05-15T01:07:45.789Z,76.85
2023-05-15T01:08:45.828Z,76.24
2023-05-15T01:09:45.777Z,76.14
2023-05-15T01:10:45.775Z,76.54
2023-05-15T01:11:45.775Z,76.85
2023-05-15T01:12:45.736Z,76.95
2023-05-15T01:13:45.737Z,76.37
2023-05-15T01:14:45.876Z,76.37
2023-05-15T01:15:45.704Z,76.68
2023-05-15T01:16:45.786Z,77.29
2023-05-15T01:17:45.745Z,76.88
2023-05-15T01:18:45.736Z,76.88
2023-05-15T01:19:45.844Z,76.28
2023-05-15T01:20:45.669Z,76.37
2023-05-15T01:21:45.638Z,76.78
2023-05-15T01:22:45.625Z,76.78
2023-05-15T01:23:45.637Z,77.39
2023-05-15T01:24:45.635Z,77.29
2023-05-15T01:25:45.594Z,76.98
2023-05-15T01:26:45.593Z,76.72
2023-05-15T01:27:45.607Z,76.98
2023-05-15T01:28:45.635Z,77.39
2023-05-15T01:29:45.588Z,76.72
2023-05-15T01:30:45.562Z,76.92
2023-05-15T01:31:45.564Z,76.82
2023-05-15T01:32:45.603Z,77.43
2023-05-15T01:33:45.536Z,77.12
2023-05-15T01:34:45.553Z,76.21
2023-05-15T01:35:45.498Z,76.10
2023-05-15T01:36:45.522Z,77.33
2023-05-15T01:37:45.502Z,76.51
2023-05-15T01:38:45.503Z,76.51
2023-05-15T01:39:45.463Z,76.92
2023-05-15T01:40:45.463Z,77.12
2023-05-15T01:41:45.680Z,77.33
2023-05-15T01:42:45.418Z,77.73
2023-05-15T01:43:45.430Z,77.02
2023-05-15T01:44:45.635Z,77.47
2023-05-15T01:45:45.440Z,77.43
2023-05-15T01:46:45.799Z,77.33
2023-05-15T01:47:45.451Z,76.92
2023-05-15T01:48:45.440Z,76.72
2023-05-15T01:49:45.335Z,76.41
2023-05-15T01:50:45.389Z,76.31
2023-05-15T01:51:45.350Z,76.34
2023-05-15T01:52:45.319Z,76.34
2023-05-15T01:53:45.349Z,76.45
2023-05-15T01:54:45.310Z,76.86
2023-05-15T01:55:45.322Z,77.06
2023-05-15T01:56:45.335Z,77.06
2023-05-15T01:57:45.271Z,77.16
2023-05-15T01:58:45.246Z,77.26
2023-05-15T01:59:45.242Z,78.68
2023-05-15T02:00:45.281Z,77.67
2023-05-15T02:01:45.266Z,78.58
2023-05-15T02:02:45.268Z,77.67
2023-05-15T02:03:45.355Z,77.97
2023-05-15T02:04:45.234Z,77.67
2023-05-15T02:05:45.177Z,78.21
2023-05-15T02:06:45.192Z,78.31
2023-05-15T02:07:45.147Z,79.33
2023-05-15T02:08:45.174Z,79.74
2023-05-15T02:09:45.146Z,80.04
2023-05-15T02:10:45.121Z,79.02
2023-05-15T02:11:45.202Z,79.23
2023-05-15T02:12:45.102Z,78.82
2023-05-15T02:13:45.083Z,78.82
2023-05-15T02:14:45.090Z,78.89
2023-05-15T02:15:45.071Z,78.78
2023-05-15T02:16:45.223Z,79.09
2023-05-15T02:17:45.155Z,78.38
2023-05-15T02:18:45.099Z,78.58
2023-05-15T02:19:45.025Z,77.67
2023-05-15T02:20:45.186Z,77.56
2023-05-15T02:21:45.041Z,77.67
2023-05-15T02:22:45.011Z,77.91
2023-05-15T02:23:44.998Z,78.01
2023-05-15T02:24:45.036Z,78.21
2023-05-15T02:25:45.029Z,78.41
2023-05-15T02:26:45.007Z,78.52
2023-05-15T02:27:44.961Z,78.92
2023-05-15T02:28:44.937Z,78.92
2023-05-15T02:29:44.938Z,78.72
2023-05-15T02:30:44.924Z,78.41
2023-05-15T02:31:45.038Z,78.31
2023-05-15T02:32:44.956Z,78.41
2023-05-15T02:33:44.890Z,79.23
2023-05-15T02:34:44.956Z,79.53
2023-05-15T02:35:44.888Z,80.45
2023-05-15T02:36:44.878Z,81.40
2023-05-15T02:37:44.877Z,81.67
2023-05-15T02:38:44.932Z,81.91
2023-05-15T02:39:44.848Z,82.18
2023-05-15T02:40:44.840Z,82.18
2023-05-15T02:41:44.795Z,82.12
2023-05-15T02:42:44.808Z,82.42
2023-05-15T02:43:44.816Z,82.42
2023-05-15T02:44:44.802Z,82.32
2023-05-15T02:45:44.792Z,82.32
2023-05-15T02:46:44.779Z,82.62
2023-05-15T02:47:44.798Z,82.62
2023-05-15T02:48:44.918Z,82.82
2023-05-15T02:49:44.795Z,82.82
2023-05-15T02:50:44.718Z,82.82
2023-05-15T02:51:44.706Z,82.82
2023-05-15T02:52:44.694Z,82.93
2023-05-15T02:53:44.708Z,83.84
2023-05-15T02:54:44.679Z,83.54
2023-05-15T02:55:44.691Z,83.74
2023-05-15T02:56:44.675Z,83.68
2023-05-15T02:57:44.649Z,84.09
2023-05-15T02:58:44.654Z,84.50
2023-05-15T02:59:44.655Z,83.89
2023-05-15T03:00:44.650Z,83.98
2023-05-15T03:01:44.618Z,83.98
2023-05-15T03:02:44.675Z,83.68
2023-05-15T03:03:44.638Z,83.68
2023-05-15T03:04:44.611Z,83.89
2023-05-15T03:05:44.552Z,83.68
2023-05-15T03:06:44.579Z,84.59
2023-05-15T03:07:44.603Z,84.09
2023-05-15T03:08:44.505Z,83.68
2023-05-15T03:09:44.478Z,83.17
2023-05-15T03:10:44.651Z,83.07
2023-05-15T03:11:44.564Z,83.27
2023-05-15T03:12:44.429Z,83.68
2023-05-15T03:13:44.432Z,83.68
2023-05-15T03:14:44.447Z,83.98
2023-05-15T03:15:44.453Z,84.19
2023-05-15T03:16:44.447Z,83.64
2023-05-15T03:17:44.435Z,83.48
2023-05-15T03:18:44.427Z,83.84
2023-05-15T03:19:44.389Z,83.58
2023-05-15T03:20:44.347Z,83.27
2023-05-15T03:21:44.363Z,83.89
2023-05-15T03:22:44.389Z,83.58
2023-05-15T03:23:44.335Z,83.07
2023-05-15T03:24:44.322Z,83.07
2023-05-15T03:25:44.292Z,83.37
2023-05-15T03:26:44.284Z,83.68
2023-05-15T03:27:44.289Z,83.07
2023-05-15T03:28:44.292Z,82.46
2023-05-15T03:29:44.300Z,82.26
2023-05-15T03:30:44.526Z,82.35
2023-05-15T03:31:44.237Z,83.07
2023-05-15T03:32:44.259Z,83.07
2023-05-15T03:33:44.377Z,82.35
2023-05-15T03:34:44.215Z,81.74
2023-05-15T03:35:44.250Z,81.74
2023-05-15T03:36:44.176Z,82.52
2023-05-15T03:37:44.201Z,83.03
2023-05-15T03:38:44.190Z,82.52
2023-05-15T03:39:44.210Z,81.91
2023-05-15T03:40:44.174Z,81.30
2023-05-15T03:41:44.158Z,81.40
2023-05-15T03:42:44.154Z,80.59
2023-05-15T03:43:44.161Z,80.38
2023-05-15T03:44:44.183Z,80.32
2023-05-15T03:45:44.097Z,80.42
2023-05-15T03:46:44.116Z,80.63
2023-05-15T03:47:44.093Z,81.04
2023-05-15T03:48:44.171Z,80.83
2023-05-15T03:49:44.047Z,81.65
2023-05-15T03:50:44.046Z,82.05
2023-05-15T03:51:44.013Z,82.15
2023-05-15T03:52:43.998Z,81.65
2023-05-15T03:53:44.291Z,81.85
2023-05-15T03:54:44.014Z,81.65
2023-05-15T03:55:44.067Z,81.54
2023-05-15T03:56:43.976Z,81.34
2023-05-15T03:57:43.968Z,81.74
2023-05-15T03:58:43.978Z,81.85
2023-05-15T03:59:43.961Z,82.15
2023-05-15T04:00:43.976Z,82.05
2023-05-15T04:01:59.436Z,82.46
2023-05-15T04:02:44.095Z,82.15
2023-05-15T04:03:43.981Z,82.05
2023-05-15T04:04:43.973Z,81.54
2023-05-15T04:05:44.557Z,81.44
2023-05-15T04:06:43.926Z,81.54
2023-05-15T04:07:43.860Z,80.52
2023-05-15T04:08:43.839Z,81.85
2023-05-15T04:09:43.848Z,81.13
2023-05-15T04:10:43.865Z,80.93
2023-05-15T04:11:43.816Z,80.90
2023-05-15T04:12:43.815Z,81.71
2023-05-15T04:13:43.821Z,82.62
2023-05-15T04:14:43.876Z,82.12
2023-05-15T04:15:43.856Z,82.12
2023-05-15T04:16:43.825Z,82.12
2023-05-15T04:17:43.803Z,82.42
2023-05-15T04:18:43.780Z,82.62
2023-05-15T04:19:43.839Z,82.62
2023-05-15T04:20:43.745Z,82.82
2023-05-15T04:21:43.790Z,82.73
2023-05-15T04:22:43.739Z,83.03
2023-05-15T04:23:43.686Z,82.93
2023-05-15T04:24:43.734Z,83.29
2023-05-15T04:25:43.699Z,83.29
2023-05-15T04:26:43.764Z,82.99
2023-05-15T04:27:43.753Z,82.99
2023-05-15T04:28:52.467Z,82.79
2023-05-15T04:29:43.627Z,82.59
2023-05-15T04:30:43.659Z,82.89
2023-05-15T04:31:43.701Z,82.99
2023-05-15T04:32:43.660Z,82.38
2023-05-15T04:33:43.608Z,82.68
2023-05-15T04:34:43.594Z,82.79
2023-05-15T04:35:43.600Z,83.09
2023-05-15T04:36:43.570Z,82.38
2023-05-15T04:37:43.571Z,82.79
2023-05-15T04:38:43.522Z,83.29
2023-05-15T04:39:43.630Z,83.40
2023-05-15T04:40:43.618Z,83.20
2023-05-15T04:41:43.538Z,82.48
2023-05-15T04:42:43.566Z,82.07
2023-05-15T04:43:43.482Z,82.28
2023-05-15T04:44:43.594Z,81.57
2023-05-15T04:45:43.505Z,80.76
2023-05-15T04:46:43.469Z,80.55
2023-05-15T04:47:43.522Z,80.65
2023-05-15T04:48:43.450Z,80.85
2023-05-15T04:49:43.514Z,80.31
2023-05-15T04:50:43.441Z,80.00
2023-05-15T04:51:43.446Z,80.00
2023-05-15T04:52:43.398Z,79.80
2023-05-15T04:53:43.406Z,79.70
2023-05-15T04:54:43.390Z,79.50
2023-05-15T04:55:43.409Z,79.80
2023-05-15T04:56:43.369Z,79.29
2023-05-15T04:57:43.388Z,79.50
2023-05-15T04:58:43.363Z,79.29
2023-05-15T04:59:43.395Z,79.09
2023-05-15T05:00:43.309Z,79.56
2023-05-15T05:01:43.436Z,80.17
2023-05-15T05:02:43.349Z,79.77
2023-05-15T05:03:43.323Z,79.05
2023-05-15T05:04:43.340Z,79.66
2023-05-15T05:05:43.249Z,79.05
2023-05-15T05:06:43.393Z,78.95
2023-05-15T05:07:43.261Z,78.55
2023-05-15T05:08:43.339Z,77.90
2023-05-15T05:09:43.289Z,78.81
2023-05-15T05:10:43.550Z,78.81
2023-05-15T05:11:43.215Z,78.20
2023-05-15T05:12:43.238Z,77.90
2023-05-15T05:13:43.594Z,78.41
2023-05-15T05:14:43.225Z,78.30
2023-05-15T05:15:43.187Z,77.80
2023-05-15T05:16:43.162Z,76.88
2023-05-15T05:17:43.224Z,77.49
2023-05-15T05:18:43.156Z,77.90
2023-05-15T05:19:44.043Z,77.90
2023-05-15T05:20:43.107Z,78.30
2023-05-15T05:21:43.108Z,78.41
2023-05-15T05:22:43.148Z,77.29
2023-05-15T05:23:43.069Z,76.88
2023-05-15T05:24:43.138Z,76.14
2023-05-15T05:25:43.046Z,75.67
2023-05-15T05:26:43.102Z,77.25
2023-05-15T05:27:43.070Z,77.05
2023-05-15T05:28:43.063Z,76.34
2023-05-15T05:29:43.041Z,75.73
2023-05-15T05:30:43.107Z,76.03
2023-05-15T05:31:43.078Z,75.29
2023-05-15T05:32:43.086Z,75.49
2023-05-15T05:33:42.987Z,73.97
2023-05-15T05:34:43.492Z,74.34
2023-05-15T05:35:42.973Z,74.34
2023-05-15T05:36:42.989Z,73.09
2023-05-15T05:37:42.962Z,72.48
2023-05-15T05:38:42.945Z,72.48
2023-05-15T05:39:42.963Z,71.97
2023-05-15T05:40:42.920Z,72.68
2023-05-15T05:41:42.875Z,72.58
2023-05-15T05:42:42.889Z,72.08
2023-05-15T05:43:42.861Z,71.53
2023-05-15T05:44:42.928Z,71.73
2023-05-15T05:45:42.841Z,71.53
2023-05-15T05:46:42.908Z,70.52
2023-05-15T05:47:42.909Z,71.09
2023-05-15T05:48:43.480Z,70.79
2023-05-15T05:49:42.870Z,71.30
2023-05-15T05:50:42.798Z,71.13
2023-05-15T05:51:42.924Z,71.23
2023-05-15T05:52:42.818Z,71.84
2023-05-15T05:53:42.789Z,71.73
2023-05-15T05:54:42.793Z,72.65
2023-05-15T05:55:42.782Z,72.65
2023-05-15T05:56:42.748Z,72.04
2023-05-15T05:57:42.730Z,72.55
2023-05-15T05:58:42.757Z,73.12
2023-05-15T05:59:42.728Z,71.70
2023-05-15T06:00:42.747Z,70.89
2023-05-15T06:01:42.740Z,71.30
2023-05-15T06:02:43.090Z,71.20
2023-05-15T06:03:43.071Z,70.65
2023-05-15T06:04:42.715Z,72.08
2023-05-15T06:05:42.672Z,70.83
2023-05-15T06:06:42.685Z,69.68
2023-05-15T06:07:42.697Z,68.84
2023-05-15T06:08:42.633Z,68.91
2023-05-15T06:09:42.623Z,67.66
2023-05-15T06:10:42.601Z,67.86
2023-05-15T06:11:42.601Z,67.49
2023-05-15T06:12:42.602Z,68.07
2023-05-15T06:13:42.560Z,68.98
2023-05-15T06:14:42.605Z,67.66
2023-05-15T06:15:42.558Z,67.76
2023-05-15T06:16:42.556Z,68.00
2023-05-15T06:17:42.636Z,68.30
2023-05-15T06:18:42.593Z,68.07
2023-05-15T06:19:42.512Z,68.40
2023-05-15T06:20:42.487Z,68.77
2023-05-15T06:21:42.607Z,68.17
2023-05-15T06:22:42.593Z,67.86
2023-05-15T06:23:42.511Z,67.23
2023-05-15T06:24:42.445Z,67.40
2023-05-15T06:25:42.478Z,67.19
2023-05-15T06:26:42.433Z,66.99
2023-05-15T06:27:42.410Z,66.49
2023-05-15T06:28:42.537Z,66.59
2023-05-15T06:29:42.385Z,67.63
2023-05-15T06:30:42.421Z,67.93
2023-05-15T06:31:42.424Z,68.67
2023-05-15T06:32:42.513Z,68.98
2023-05-15T06:33:42.488Z,68.87
2023-05-15T06:34:42.330Z,68.87
2023-05-15T06:35:42.340Z,68.24
2023-05-15T06:36:42.315Z,68.13
2023-05-15T06:37:42.397Z,67.56
2023-05-15T06:38:42.330Z,67.56
2023-05-15T06:39:42.272Z,68.17
2023-05-15T06:40:42.308Z,67.73
2023-05-15T06:41:42.278Z,67.97
2023-05-15T06:42:42.289Z,68.91
2023-05-15T06:43:43.038Z,69.62
2023-05-15T06:44:42.289Z,69.62
2023-05-15T06:45:42.260Z,70.05
2023-05-15T06:46:42.324Z,69.71
2023-05-15T06:47:42.376Z,69.75
2023-05-15T06:48:42.276Z,69.75
2023-05-15T06:49:43.002Z,70.42
2023-05-15T06:50:42.269Z,70.32
2023-05-15T06:51:42.190Z,70.12
2023-05-15T06:52:42.275Z,69.92
2023-05-15T06:53:42.256Z,69.51
2023-05-15T06:54:42.141Z,69.71
2023-05-15T06:55:42.229Z,69.92
2023-05-15T06:56:42.117Z,69.85
2023-05-15T06:57:42.191Z,69.65
2023-05-15T06:58:42.181Z,69.98
2023-05-15T06:59:42.082Z,69.98
2023-05-15T07:00:42.115Z,70.62
2023-05-15T07:01:42.094Z,71.33
2023-05-15T07:02:42.133Z,71.33
2023-05-15T07:03:42.088Z,71.16
2023-05-15T07:04:42.141Z,71.23
2023-05-15T07:05:42.165Z,71.33
2023-05-15T07:06:42.248Z,71.23
2023-05-15T07:07:42.148Z,71.44
2023-05-15T07:08:42.056Z,70.79
2023-05-15T07:09:41.972Z,70.89
2023-05-15T07:10:42.020Z,70.79
2023-05-15T07:11:41.972Z,70.49
2023-05-15T07:12:42.006Z,70.79
2023-05-15T07:13:42.025Z,71.00
2023-05-15T07:14:41.924Z,70.79
2023-05-15T07:15:41.953Z,70.79
2023-05-15T07:16:41.925Z,70.36
2023-05-15T07:17:42.085Z,69.82
2023-05-15T07:18:41.994Z,69.71
2023-05-15T07:19:41.884Z,69.95
2023-05-15T07:20:41.850Z,70.15
2023-05-15T07:21:41.869Z,70.05
2023-05-15T07:22:55.113Z,69.95
2023-05-15T07:23:41.912Z,69.85
2023-05-15T07:24:41.816Z,69.95
2023-05-15T07:25:41.810Z,70.36
2023-05-15T07:26:50.608Z,69.65
2023-05-15T07:27:41.788Z,69.62
2023-05-15T07:28:41.824Z,69.01
2023-05-15T07:29:41.785Z,68.91
2023-05-15T07:30:41.788Z,68.80
2023-05-15T07:31:41.905Z,68.91
2023-05-15T07:32:41.878Z,68.60
2023-05-15T07:33:41.726Z,68.30
2023-05-15T07:34:42.554Z,69.31
2023-05-15T07:35:41.687Z,69.01
2023-05-15T07:36:41.765Z,69.11
2023-05-15T07:37:41.809Z,68.80
2023-05-15T07:38:41.699Z,68.60
2023-05-15T07:39:41.794Z,69.42
2023-05-15T07:40:41.756Z,69.65
2023-05-15T07:41:41.925Z,69.85
2023-05-15T07:42:41.695Z,69.75
2023-05-15T07:43:41.616Z,69.85
2023-05-15T07:44:43.085Z,69.82
2023-05-15T07:45:41.662Z,69.42
2023-05-15T07:46:41.662Z,69.45
2023-05-15T07:47:41.613Z,69.55
2023-05-15T07:48:41.571Z,69.24
2023-05-15T07:49:41.693Z,69.95
2023-05-15T07:50:41.551Z,69.21
2023-05-15T07:51:41.582Z,69.11
2023-05-15T07:52:41.541Z,68.91
2023-05-15T07:53:41.539Z,68.57
2023-05-15T07:54:41.523Z,68.47
2023-05-15T07:55:42.040Z,68.77
2023-05-15T07:56:41.487Z,68.64
2023-05-15T07:57:41.717Z,68.64
2023-05-15T07:58:41.473Z,68.10
2023-05-15T07:59:41.526Z,67.80
2023-05-15T08:00:41.435Z,68.24
2023-05-15T08:01:41.530Z,68.44
2023-05-15T08:02:41.673Z,68.33
2023-05-15T08:03:41.615Z,68.67
2023-05-15T08:04:41.597Z,69.08
2023-05-15T08:05:41.593Z,69.28
2023-05-15T08:06:42.601Z,69.35
2023-05-15T08:07:41.356Z,68.64
2023-05-15T08:08:41.363Z,68.44
2023-05-15T08:09:41.347Z,68.24
2023-05-15T08:10:41.355Z,68.24
2023-05-15T08:11:41.307Z,67.93
2023-05-15T08:12:41.331Z,68.04
2023-05-15T08:13:41.294Z,67.19
2023-05-15T08:14:41.536Z,66.89
2023-05-15T08:15:41.387Z,66.82
2023-05-15T08:16:41.334Z,66.72
2023-05-15T08:17:41.283Z,66.93
2023-05-15T08:18:41.263Z,66.79
2023-05-15T08:19:41.216Z,66.29
2023-05-15T08:20:41.246Z,65.58
2023-05-15T08:21:41.293Z,65.99
2023-05-15T08:22:41.293Z,65.95
2023-05-15T08:23:41.190Z,65.85
2023-05-15T08:24:41.288Z,65.65
2023-05-15T08:25:41.159Z,65.35
2023-05-15T08:26:41.263Z,64.24
2023-05-15T08:27:41.184Z,64.34
2023-05-15T08:28:41.125Z,63.64
2023-05-15T08:29:41.232Z,63.13
2023-05-15T08:30:41.100Z,63.33
2023-05-15T08:31:41.230Z,63.64
2023-05-15T08:32:41.089Z,63.40
2023-05-15T08:33:41.105Z,63.60
2023-05-15T08:34:41.078Z,63.27
2023-05-15T08:35:41.221Z,63.47
2023-05-15T08:36:41.549Z,63.57
2023-05-15T08:37:41.056Z,63.17
2023-05-15T08:38:41.120Z,61.56
2023-05-15T08:39:41.052Z,62.37
2023-05-15T08:40:41.117Z,62.90
2023-05-15T08:41:41.311Z,63.10
2023-05-15T08:42:41.021Z,61.89
2023-05-15T08:43:41.017Z,62.70
2023-05-15T08:44:41.090Z,63.70
2023-05-15T08:45:40.986Z,63.90
2023-05-15T08:46:41.007Z,64.01
2023-05-15T08:47:40.974Z,64.41
2023-05-15T08:48:41.116Z,64.11
2023-05-15T08:49:42.205Z,64.07
2023-05-15T08:50:41.062Z,63.27
2023-05-15T08:51:40.942Z,62.64
2023-05-15T08:52:40.968Z,62.94
2023-05-15T08:53:41.040Z,62.54
2023-05-15T08:54:40.928Z,62.64
2023-05-15T08:55:40.872Z,63.01
2023-05-15T08:56:41.224Z,62.91
2023-05-15T08:57:40.823Z,62.61
2023-05-15T08:58:40.912Z,62.61
2023-05-15T08:59:40.925Z,62.74
2023-05-15T09:00:40.923Z,62.54
2023-05-15T09:01:40.971Z,63.14
2023-05-15T09:02:40.985Z,63.45
2023-05-15T09:03:40.969Z,63.45
2023-05-15T09:04:40.850Z,63.14
2023-05-15T09:05:40.851Z,62.34
2023-05-15T09:06:41.594Z,62.94
2023-05-15T09:07:40.727Z,62.94
2023-05-15T09:08:40.904Z,62.84
2023-05-15T09:09:40.809Z,63.17
2023-05-15T09:10:40.718Z,63.87
2023-05-15T09:11:40.700Z,64.28
2023-05-15T09:12:40.801Z,63.87
2023-05-15T09:13:41.041Z,64.01
2023-05-15T09:14:40.715Z,64.07
2023-05-15T09:15:40.953Z,64.28
2023-05-15T09:16:40.740Z,64.28
2023-05-15T09:17:40.657Z,64.38
2023-05-15T09:18:40.692Z,63.87
2023-05-15T09:19:40.638Z,64.18
2023-05-15T09:20:40.873Z,63.78
2023-05-15T09:21:40.673Z,63.57
2023-05-15T09:22:40.956Z,63.98
2023-05-15T09:23:40.654Z,63.98
2023-05-15T09:24:40.617Z,63.98
2023-05-15T09:25:40.592Z,63.87
2023-05-15T09:26:40.563Z,63.98
2023-05-15T09:27:40.516Z,63.65
2023-05-15T09:28:40.862Z,63.34
2023-05-15T09:29:40.690Z,63.14
2023-05-15T09:30:40.546Z,63.01
2023-05-15T09:31:40.543Z,62.71
2023-05-15T09:32:40.686Z,62.61
2023-05-15T09:33:40.685Z,62.81
2023-05-15T09:34:40.505Z,62.91
2023-05-15T09:35:40.487Z,62.71
2023-05-15T09:36:40.710Z,63.14
2023-05-15T09:37:40.465Z,63.45
2023-05-15T09:38:40.391Z,63.34
2023-05-15T09:39:40.394Z,63.11
2023-05-15T09:40:40.441Z,63.21
2023-05-15T09:41:40.416Z,62.71
2023-05-15T09:42:40.389Z,62.61
2023-05-15T09:43:40.360Z,62.21
2023-05-15T09:44:40.725Z,62.51
2023-05-15T09:45:40.382Z,62.91
2023-05-15T09:46:40.420Z,62.81
2023-05-15T09:47:40.589Z,62.71
2023-05-15T09:48:40.429Z,62.61
2023-05-15T09:49:40.301Z,63.21
2023-05-15T09:50:40.428Z,63.21
2023-05-15T09:51:40.304Z,63.01
2023-05-15T09:52:40.884Z,63.01
2023-05-15T09:53:40.252Z,63.21
2023-05-15T09:54:40.264Z,63.71
2023-05-15T09:55:40.252Z,63.51
2023-05-15T09:56:40.264Z,63.92
2023-05-15T09:57:40.416Z,63.31
2023-05-15T09:58:40.214Z,63.51
2023-05-15T09:59:40.230Z,63.71
2023-05-15T10:00:47.622Z,63.39
2023-05-15T10:01:40.334Z,63.28
2023-05-15T10:02:40.393Z,63.18
2023-05-15T10:03:40.182Z,63.28
2023-05-15T10:04:40.153Z,63.65
2023-05-15T10:05:43.477Z,62.95
2023-05-15T10:06:42.797Z,63.05
2023-05-15T10:07:40.185Z,63.25
2023-05-15T10:08:40.119Z,63.05
2023-05-15T10:09:41.010Z,63.05
2023-05-15T10:10:41.021Z,62.35
2023-05-15T10:11:40.071Z,62.12
2023-05-15T10:12:40.367Z,61.31
2023-05-15T10:13:40.150Z,61.38
2023-05-15T10:14:40.290Z,60.78
2023-05-15T10:15:40.161Z,60.55
2023-05-15T10:16:40.134Z,60.35
2023-05-15T10:17:40.649Z,60.15
2023-05-15T10:18:40.141Z,59.62
2023-05-15T10:19:54.143Z,59.82
2023-05-15T10:20:40.295Z,59.82
2023-05-15T10:21:40.533Z,59.12
2023-05-15T10:22:40.344Z,59.19
2023-05-15T10:23:40.995Z,58.69
2023-05-15T10:24:40.615Z,58.29
2023-05-15T10:25:39.961Z,58.26
2023-05-15T10:26:40.075Z,57.86
2023-05-15T10:27:40.034Z,57.63
2023-05-15T10:28:40.050Z,57.43
2023-05-15T10:29:39.948Z,57.46
2023-05-15T10:30:39.875Z,57.86
2023-05-15T10:31:39.973Z,58.16
2023-05-15T10:32:40.513Z,58.06
2023-05-15T10:33:39.984Z,57.66
2023-05-15T10:34:39.862Z,57.66
2023-05-15T10:35:39.854Z,56.85
2023-05-15T10:36:41.723Z,56.26
2023-05-15T10:37:39.884Z,56.45
2023-05-15T10:38:40.139Z,56.65
2023-05-15T10:39:39.802Z,56.56
2023-05-15T10:40:40.004Z,55.93
2023-05-15T10:41:39.848Z,56.13
2023-05-15T10:42:39.791Z,55.82
2023-05-15T10:43:39.727Z,55.93
2023-05-15T10:44:39.771Z,55.20
2023-05-15T10:45:39.781Z,55.80
2023-05-15T10:46:39.787Z,56.13
2023-05-15T10:47:39.798Z,56.63
2023-05-15T10:48:39.797Z,56.73
2023-05-15T10:49:39.706Z,56.33
2023-05-15T10:50:39.970Z,56.56
2023-05-15T10:51:39.680Z,56.76
2023-05-15T10:52:39.667Z,56.78
2023-05-15T10:53:39.793Z,57.39
2023-05-15T10:54:39.636Z,57.08
2023-05-15T10:55:39.751Z,57.91
2023-05-15T10:56:39.662Z,58.11
2023-05-15T10:57:39.601Z,58.34
2023-05-15T10:58:39.597Z,58.97
2023-05-15T10:59:39.577Z,59.58
2023-05-15T11:00:39.570Z,59.88
2023-05-15T11:01:39.592Z,59.98
2023-05-15T11:02:39.557Z,59.88
2023-05-15T11:03:48.679Z,59.78
2023-05-15T11:04:39.587Z,59.78
2023-05-15T11:05:39.607Z,59.05
2023-05-15T11:06:39.646Z,58.84
2023-05-15T11:07:39.474Z,57.51
2023-05-15T11:08:39.480Z,57.01
2023-05-15T11:09:40.454Z,57.11
2023-05-15T11:10:39.522Z,56.91
2023-05-15T11:11:39.495Z,55.80
2023-05-15T11:12:39.676Z,55.98
2023-05-15T11:13:39.441Z,55.68
2023-05-15T11:14:39.562Z,54.75
2023-05-15T11:15:39.418Z,53.85
2023-05-15T11:16:39.618Z,53.64
2023-05-15T11:17:39.429Z,53.55
2023-05-15T11:18:39.516Z,54.02
2023-05-15T11:19:39.497Z,53.72
2023-05-15T11:20:39.357Z,53.09
2023-05-15T11:21:39.414Z,52.89
2023-05-15T11:22:39.413Z,51.19
2023-05-15T11:23:39.463Z,51.32
2023-05-15T11:24:39.347Z,50.51
2023-05-15T11:25:39.329Z,51.72
2023-05-15T11:26:39.804Z,51.42
2023-05-15T11:27:39.377Z,51.42
2023-05-15T11:28:39.310Z,50.11
2023-05-15T11:29:39.385Z,51.34
2023-05-15T11:30:39.519Z,52.34
2023-05-15T11:31:39.288Z,52.44
2023-05-15T11:32:40.134Z,53.05
2023-05-15T11:33:39.304Z,53.14
2023-05-15T11:34:39.413Z,52.24
2023-05-15T11:35:40.338Z,51.82
2023-05-15T11:36:39.241Z,51.72
2023-05-15T11:37:39.267Z,52.52
2023-05-15T11:38:39.352Z,52.82
2023-05-15T11:39:39.269Z,52.89
2023-05-15T11:40:39.176Z,51.89
2023-05-15T11:41:39.199Z,49.69
2023-05-15T11:42:39.130Z,49.79
2023-05-15T11:43:39.158Z,49.57
2023-05-15T11:44:39.215Z,48.96
2023-05-15T11:45:39.158Z,48.46
2023-05-15T11:46:39.271Z,48.16
2023-05-15T11:47:39.216Z,48.26
2023-05-15T11:48:39.114Z,47.06
2023-05-15T11:49:39.144Z,47.16
2023-05-15T11:50:39.066Z,47.56
2023-05-15T11:51:39.164Z,47.16
2023-05-15T11:52:39.217Z,46.26
2023-05-15T11:53:39.141Z,45.76
2023-05-15T11:54:39.064Z,45.96
2023-05-15T11:55:39.148Z,46.46
2023-05-15T11:56:39.155Z,46.94
2023-05-15T11:57:39.236Z,47.54
2023-05-15T11:58:39.156Z,46.42
2023-05-15T11:59:39.061Z,45.31
2023-05-15T12:00:38.989Z,44.71
2023-05-15T12:01:38.943Z,43.21
2023-05-15T12:02:39.049Z,44.24
2023-05-15T12:03:39.117Z,44.64
2023-05-15T12:04:39.153Z,44.93
2023-05-15T12:05:42.336Z,45.62
2023-05-15T12:06:39.554Z,45.42
2023-05-15T12:07:39.020Z,45.51
2023-05-15T12:08:39.108Z,44.92
2023-05-15T12:09:38.953Z,45.42
2023-05-15T12:10:38.931Z,45.72
2023-05-15T12:11:38.842Z,45.54
2023-05-15T12:12:38.955Z,45.54
2023-05-15T12:13:38.864Z,45.46
2023-05-15T12:14:38.947Z,45.46
2023-05-15T12:15:39.078Z,46.08
2023-05-15T12:16:38.952Z,46.58
2023-05-15T12:17:38.952Z,46.78
2023-05-15T12:18:38.953Z,47.06
2023-05-15T12:19:38.905Z,47.26
2023-05-15T12:20:38.889Z,46.56
2023-05-15T12:21:38.960Z,46.46
2023-05-15T12:22:38.905Z,46.36
2023-05-15T12:23:38.753Z,46.54
2023-05-15T12:24:38.778Z,45.94
2023-05-15T12:25:38.675Z,45.42
2023-05-15T12:26:38.939Z,44.82
2023-05-15T12:27:38.686Z,44.51
2023-05-15T12:28:38.670Z,43.99
2023-05-15T12:29:38.656Z,44.71
2023-05-15T12:30:38.686Z,45.12
2023-05-15T12:31:38.717Z,45.31
2023-05-15T12:32:38.948Z,45.12
2023-05-15T12:33:38.722Z,45.39
2023-05-15T12:34:38.592Z,45.00
2023-05-15T12:35:38.708Z,44.27
2023-05-15T12:36:38.612Z,44.67
2023-05-15T12:37:38.600Z,43.87
2023-05-15T12:38:38.603Z,44.17
2023-05-15T12:39:38.542Z,43.98
2023-05-15T12:40:38.629Z,44.17
2023-05-15T12:41:38.616Z,44.27
2023-05-15T12:42:38.582Z,44.35
2023-05-15T12:43:39.272Z,42.85
2023-05-15T12:44:38.550Z,41.96
2023-05-15T12:45:38.569Z,42.87
2023-05-15T12:46:38.588Z,43.67
2023-05-15T12:47:38.489Z,43.87
2023-05-15T12:48:38.532Z,44.07
2023-05-15T12:49:38.446Z,44.27
2023-05-15T12:50:38.712Z,44.27
2023-05-15T12:51:38.414Z,43.35
2023-05-15T12:52:38.429Z,42.95